createdAt,value
2022-11-25T00:00:49.930Z,6.28
2022-11-25T00:03:19.319Z,5.00
2022-11-25T00:05:47.332Z,5.18
2022-11-25T00:08:15.215Z,5.82
2022-11-25T00:10:43.142Z,4.95
2022-11-25T00:13:10.990Z,4.82
2022-11-25T00:15:38.850Z,5.85
2022-11-25T00:18:06.935Z,4.57
2022-11-25T00:20:38.665Z,4.20
2022-11-25T00:23:06.616Z,4.72
2022-11-25T00:25:34.547Z,4.45
2022-11-25T00:28:02.368Z,6.13
2022-11-25T00:30:30.332Z,5.93
2022-11-25T00:32:58.250Z,4.88
2022-11-25T00:35:26.177Z,4.07
2022-11-25T00:37:55.419Z,4.93
2022-11-25T00:40:23.347Z,4.30
2022-11-25T00:43:09.010Z,5.28
2022-11-25T00:45:36.975Z,6.15
2022-11-25T00:48:05.322Z,4.90
2022-11-25T00:50:33.183Z,5.00
2022-11-25T00:53:02.426Z,5.50
2022-11-25T00:55:50.754Z,6.20
2022-11-25T00:58:18.719Z,5.75
2022-11-25T01:00:46.669Z,5.25
2022-11-25T01:03:14.673Z,5.60
2022-11-25T01:05:42.582Z,5.40
2022-11-25T01:08:11.844Z,4.97
2022-11-25T01:10:39.778Z,5.40
2022-11-25T01:13:07.666Z,4.90
2022-11-25T01:15:38.007Z,4.57
2022-11-25T01:18:05.995Z,5.03
2022-11-25T01:20:34.147Z,4.93
2022-11-25T01:23:02.119Z,5.60
2022-11-25T01:25:31.394Z,4.53
2022-11-25T01:27:59.280Z,4.32
2022-11-25T01:30:27.233Z,4.45
2022-11-25T01:32:55.112Z,4.90
2022-11-25T01:35:22.988Z,5.25
2022-11-25T01:37:50.939Z,5.47
2022-11-25T01:40:18.946Z,4.93
2022-11-25T01:42:50.030Z,5.50
2022-11-25T01:45:34.737Z,6.18
2022-11-25T01:48:07.641Z,5.65
2022-11-25T01:50:36.865Z,5.68
2022-11-25T01:53:08.870Z,5.43
2022-11-25T01:55:38.907Z,5.43
2022-11-25T01:58:12.538Z,6.35
2022-11-25T02:00:40.905Z,6.13
2022-11-25T02:03:09.840Z,5.78
2022-11-25T02:05:46.943Z,6.80
2022-11-25T02:08:16.281Z,6.80
2022-11-25T02:10:45.747Z,7.65
2022-11-25T02:13:15.095Z,6.75
2022-11-25T02:15:43.124Z,6.97
2022-11-25T02:18:11.213Z,5.82
2022-11-25T02:20:40.717Z,6.25
2022-11-25T02:23:16.475Z,6.55
2022-11-25T02:25:47.581Z,7.88
2022-11-25T02:28:18.194Z,6.13
2022-11-25T02:30:47.370Z,6.88
2022-11-25T02:33:15.918Z,7.22
2022-11-25T02:35:45.471Z,7.43
2022-11-25T02:38:17.656Z,6.45
2022-11-25T02:40:49.891Z,6.38
2022-11-25T02:43:18.885Z,7.55
2022-11-25T02:45:56.555Z,7.68
2022-11-25T02:48:45.744Z,8.00
2022-11-25T02:53:42.801Z,7.43
2022-11-25T02:56:13.649Z,8.38
2022-11-25T02:58:42.177Z,8.30
2022-11-25T03:01:10.530Z,7.38
2022-11-25T03:03:38.883Z,7.97
2022-11-25T03:06:07.207Z,8.25
2022-11-25T03:08:35.459Z,6.97
2022-11-25T03:11:03.403Z,7.32
2022-11-25T03:13:32.826Z,6.63
2022-11-25T03:16:00.863Z,8.80
2022-11-25T03:18:28.980Z,8.73
2022-11-25T03:20:57.624Z,8.10
2022-11-25T03:23:25.832Z,8.40
2022-11-25T03:25:53.703Z,8.15
2022-11-25T03:28:21.869Z,8.88
2022-11-25T03:30:51.121Z,9.45
2022-11-25T03:33:19.095Z,9.98
2022-11-25T03:35:48.909Z,9.35
2022-11-25T03:38:16.808Z,9.20
2022-11-25T03:40:44.761Z,7.82
2022-11-25T03:43:12.659Z,8.75
2022-11-25T03:45:40.560Z,9.32
2022-11-25T03:48:09.787Z,8.80
2022-11-25T03:50:37.681Z,8.98
2022-11-25T03:53:05.557Z,7.00
2022-11-25T03:55:33.465Z,8.13
2022-11-25T03:58:01.377Z,7.85
2022-11-25T04:00:29.279Z,7.63
2022-11-25T04:02:57.174Z,6.53
2022-11-25T04:05:26.396Z,7.00
2022-11-25T04:07:57.935Z,7.60
2022-11-25T04:10:26.191Z,7.25
2022-11-25T04:12:54.371Z,7.75
2022-11-25T04:15:22.473Z,7.70
2022-11-25T04:17:50.351Z,8.48
2022-11-25T04:20:18.573Z,7.40
2022-11-25T04:22:47.833Z,7.05
2022-11-25T04:25:16.189Z,6.80
2022-11-25T04:27:44.184Z,6.97
2022-11-25T04:30:12.825Z,7.55
2022-11-25T04:32:40.904Z,6.20
2022-11-25T04:35:09.596Z,7.32
2022-11-25T04:37:37.689Z,6.63
2022-11-25T04:40:08.427Z,7.57
2022-11-25T04:42:36.896Z,6.60
2022-11-25T04:45:22.458Z,5.78
2022-11-25T04:47:52.112Z,6.68
2022-11-25T04:50:23.495Z,6.47
2022-11-25T04:52:51.695Z,6.75
2022-11-25T04:55:21.046Z,5.95
2022-11-25T04:57:49.016Z,6.03
2022-11-25T05:00:16.783Z,6.35
2022-11-25T05:02:44.713Z,7.35
2022-11-25T05:05:12.716Z,6.43
2022-11-25T05:07:40.712Z,6.18
2022-11-25T05:10:09.868Z,6.60
2022-11-25T05:12:39.317Z,5.82
2022-11-25T05:15:08.111Z,5.97
2022-11-25T05:17:36.211Z,7.25
2022-11-25T05:20:05.352Z,6.35
2022-11-25T05:22:34.334Z,6.80
2022-11-25T05:25:05.586Z,6.65
2022-11-25T05:27:33.523Z,5.55
2022-11-25T05:30:02.850Z,6.10
2022-11-25T05:32:30.758Z,6.72
2022-11-25T05:34:58.679Z,6.22
2022-11-25T05:37:26.562Z,6.00
2022-11-25T05:39:54.455Z,5.75
2022-11-25T05:42:22.360Z,6.50
2022-11-25T05:44:50.295Z,6.53
2022-11-25T05:47:19.497Z,6.28
2022-11-25T05:49:47.527Z,6.90
2022-11-25T05:52:15.488Z,6.57
2022-11-25T05:54:43.388Z,6.63
2022-11-25T05:57:11.282Z,6.53
2022-11-25T05:59:39.288Z,7.28
2022-11-25T06:02:07.267Z,7.93
2022-11-25T06:04:36.797Z,5.65
2022-11-25T06:07:06.035Z,7.20
2022-11-25T06:09:34.108Z,6.82
2022-11-25T06:12:02.030Z,6.68
2022-11-25T06:14:30.154Z,6.90
2022-11-25T06:16:58.055Z,7.30
2022-11-25T06:19:25.977Z,8.07
2022-11-25T06:21:55.217Z,8.10
2022-11-25T06:24:23.300Z,7.80
2022-11-25T06:26:51.457Z,7.60
2022-11-25T06:29:19.405Z,6.95
2022-11-25T06:31:47.403Z,6.97
2022-11-25T06:34:15.341Z,7.30
2022-11-25T06:36:43.211Z,6.57
2022-11-25T06:39:12.606Z,6.35
2022-11-25T06:41:40.511Z,7.63
2022-11-25T06:44:08.430Z,6.93
2022-11-25T06:46:36.447Z,5.63
2022-11-25T06:49:04.767Z,4.72
2022-11-25T06:51:32.674Z,5.22
2022-11-25T06:54:00.648Z,5.32
2022-11-25T06:56:30.206Z,4.72
2022-11-25T06:58:58.079Z,4.13
2022-11-25T07:01:28.248Z,4.53
2022-11-25T07:03:57.545Z,5.47
2022-11-25T07:06:25.850Z,4.78
2022-11-25T07:08:53.865Z,5.05
2022-11-25T07:11:24.020Z,3.78
2022-11-25T07:13:55.889Z,3.85
2022-11-25T07:16:24.432Z,4.13
2022-11-25T07:18:52.583Z,4.50
2022-11-25T07:21:22.790Z,3.85
2022-11-25T07:23:51.859Z,3.78
2022-11-25T07:26:23.150Z,3.38
2022-11-25T07:28:52.613Z,3.40
2022-11-25T07:31:28.196Z,3.17
2022-11-25T07:34:01.456Z,3.17
2022-11-25T07:36:30.394Z,3.25
2022-11-25T07:38:59.743Z,2.72
2022-11-25T07:41:29.171Z,2.85
2022-11-25T07:43:59.091Z,3.22
2022-11-25T07:46:30.287Z,3.38
2022-11-25T07:49:00.885Z,3.03
2022-11-25T07:51:31.802Z,3.85
2022-11-25T07:54:01.571Z,3.38
2022-11-25T07:56:30.890Z,4.25
2022-11-25T07:58:59.193Z,4.00
2022-11-25T08:01:29.526Z,4.85
2022-11-25T08:03:57.576Z,3.80
2022-11-25T08:06:27.545Z,3.30
2022-11-25T08:08:57.212Z,3.97
2022-11-25T08:11:26.993Z,3.50
2022-11-25T08:13:55.281Z,3.53
2022-11-25T08:16:26.269Z,4.40
2022-11-25T08:18:56.653Z,3.95
2022-11-25T08:21:24.845Z,4.50
2022-11-25T08:23:53.365Z,3.88
2022-11-25T08:26:23.669Z,4.25
2022-11-25T08:28:51.760Z,4.45
2022-11-25T08:31:22.042Z,3.95
2022-11-25T08:33:50.778Z,5.15
2022-11-25T08:36:21.420Z,4.53
2022-11-25T08:38:51.971Z,4.03
2022-11-25T08:41:24.734Z,3.63
2022-11-25T08:43:53.333Z,3.58
2022-11-25T08:46:24.151Z,4.22
2022-11-25T08:48:52.108Z,4.18
2022-11-25T08:51:23.894Z,3.88
2022-11-25T08:53:52.622Z,4.10
2022-11-25T08:56:25.954Z,3.97
2022-11-25T08:58:54.532Z,4.40
2022-11-25T09:01:24.294Z,6.82
2022-11-25T09:03:55.326Z,4.25
2022-11-25T09:06:25.851Z,4.97
2022-11-25T09:08:56.413Z,4.47
2022-11-25T09:11:24.694Z,6.32
2022-11-25T09:13:52.792Z,4.65
2022-11-25T09:16:21.316Z,7.65
2022-11-25T09:18:55.323Z,6.53
2022-11-25T09:21:25.745Z,5.38
2022-11-25T09:23:55.077Z,5.20
2022-11-25T09:26:25.107Z,4.60
2022-11-25T09:28:53.605Z,5.22
2022-11-25T09:31:22.784Z,4.88
2022-11-25T09:33:51.010Z,4.72
2022-11-25T09:36:20.509Z,3.85
2022-11-25T09:38:49.811Z,4.85
2022-11-25T09:41:50.281Z,4.05
2022-11-25T09:44:45.801Z,4.53
2022-11-25T09:47:21.284Z,3.88
2022-11-25T09:50:07.233Z,4.00
2022-11-25T09:52:44.464Z,3.33
2022-11-25T09:55:17.659Z,6.38
2022-11-25T09:57:59.966Z,4.75
2022-11-25T10:00:38.634Z,4.90
2022-11-25T10:03:14.273Z,5.32
2022-11-25T10:05:47.259Z,5.05
2022-11-25T10:08:20.519Z,4.25
2022-11-25T10:10:52.787Z,4.07
2022-11-25T10:13:28.913Z,3.50
2022-11-25T10:16:03.024Z,3.45
2022-11-25T10:18:34.505Z,3.72
2022-11-25T10:21:02.446Z,3.38
2022-11-25T10:23:34.898Z,3.55
2022-11-25T10:26:12.684Z,3.30
2022-11-25T10:28:44.620Z,2.80
2022-11-25T10:31:18.674Z,2.90
2022-11-25T10:33:49.011Z,3.05
2022-11-25T10:36:19.830Z,3.00
2022-11-25T10:38:59.160Z,2.90
2022-11-25T10:41:33.571Z,3.13
2022-11-25T10:44:01.668Z,3.10
2022-11-25T10:46:57.389Z,2.92
2022-11-25T10:49:31.048Z,3.00
2022-11-25T10:51:59.027Z,2.70
2022-11-25T10:54:28.684Z,2.60
2022-11-25T10:56:59.694Z,2.35
2022-11-25T10:59:30.606Z,2.80
2022-11-25T11:02:19.138Z,2.83
2022-11-25T11:04:54.909Z,2.88
2022-11-25T11:07:23.842Z,2.78
2022-11-25T11:09:52.355Z,2.75
2022-11-25T11:12:24.498Z,2.80
2022-11-25T11:14:52.991Z,2.53
2022-11-25T11:17:36.075Z,2.40
2022-11-25T11:20:17.061Z,2.42
2022-11-25T11:22:52.806Z,2.10
2022-11-25T11:25:33.324Z,2.92
2022-11-25T11:28:03.863Z,2.63
2022-11-25T11:30:33.435Z,2.35
2022-11-25T11:33:04.808Z,2.75
2022-11-25T11:35:48.727Z,2.30
2022-11-25T11:38:27.366Z,2.58
2022-11-25T11:41:00.504Z,2.80
2022-11-25T11:43:46.003Z,2.60
2022-11-25T11:46:31.724Z,2.50
2022-11-25T11:49:15.457Z,2.97
2022-11-25T11:51:52.328Z,2.63
2022-11-25T11:54:28.023Z,2.90
2022-11-25T11:57:00.872Z,2.78
2022-11-25T11:59:46.715Z,3.55
2022-11-25T12:02:25.046Z,2.83
2022-11-25T12:05:00.707Z,2.15
2022-11-25T12:07:35.590Z,3.00
2022-11-25T12:10:08.781Z,3.70
2022-11-25T12:12:40.137Z,2.38
2022-11-25T12:15:18.769Z,3.58
2022-11-25T12:17:52.687Z,2.17
2022-11-25T12:20:31.301Z,3.00
2022-11-25T12:23:04.268Z,1.90
2022-11-25T12:25:37.385Z,2.63
2022-11-25T12:28:11.401Z,2.30
2022-11-25T12:30:59.353Z,2.95
2022-11-25T12:33:44.830Z,2.30
2022-11-25T12:36:17.609Z,2.08
2022-11-25T12:38:48.460Z,2.67
2022-11-25T12:41:25.965Z,2.17
2022-11-25T12:44:00.425Z,2.47
2022-11-25T12:46:36.472Z,2.25
2022-11-25T12:49:06.509Z,2.15
2022-11-25T12:52:02.936Z,3.00
2022-11-25T12:54:47.537Z,3.65
2022-11-25T12:57:49.031Z,2.30
2022-11-25T13:03:45.963Z,2.75
2022-11-25T13:06:39.537Z,2.30
2022-11-25T13:09:22.663Z,3.70
2022-11-25T13:12:06.374Z,4.05
2022-11-25T13:15:09.900Z,3.33
2022-11-25T13:17:42.811Z,3.70
2022-11-25T13:20:38.217Z,3.50
2022-11-25T13:23:22.605Z,4.30
2022-11-25T13:25:52.891Z,3.42
2022-11-25T13:28:31.068Z,3.20
2022-11-25T13:34:08.479Z,3.00
2022-11-25T13:36:48.971Z,2.45
2022-11-25T13:39:19.846Z,2.67
2022-11-25T13:41:59.841Z,2.65
2022-11-25T13:44:32.164Z,2.38
2022-11-25T13:47:21.135Z,2.30
2022-11-25T13:49:53.957Z,2.22
2022-11-25T13:52:37.881Z,2.70
2022-11-25T13:55:31.984Z,2.97
2022-11-25T13:58:17.749Z,1.90
2022-11-25T14:01:29.200Z,2.17
2022-11-25T14:04:01.422Z,2.25
2022-11-25T14:06:53.141Z,2.50
2022-11-25T14:09:33.856Z,2.20
2022-11-25T14:12:22.545Z,2.53
2022-11-25T14:15:04.162Z,2.20
2022-11-25T14:17:48.232Z,2.60
2022-11-25T14:20:30.831Z,2.45
2022-11-25T14:23:22.199Z,3.20
2022-11-25T14:25:53.609Z,2.55
2022-11-25T14:28:34.630Z,2.85
2022-11-25T14:31:10.004Z,2.40
2022-11-25T14:33:44.903Z,2.38
2022-11-25T14:36:16.252Z,3.30
2022-11-25T14:38:49.988Z,2.40
2022-11-25T14:41:21.007Z,2.08
2022-11-25T14:43:54.883Z,2.85
2022-11-25T14:46:25.547Z,2.47
2022-11-25T14:48:57.910Z,2.38
2022-11-25T14:51:27.961Z,2.40
2022-11-25T14:53:57.677Z,2.45
2022-11-25T14:56:28.948Z,2.13
2022-11-25T14:58:59.776Z,2.47
2022-11-25T15:01:29.992Z,2.05
2022-11-25T15:04:05.917Z,2.72
2022-11-25T15:06:37.829Z,2.65
2022-11-25T15:09:19.528Z,3.20
2022-11-25T15:11:48.210Z,2.72
2022-11-25T15:14:28.615Z,2.50
2022-11-25T15:16:58.597Z,2.22
2022-11-25T15:19:33.683Z,2.80
2022-11-25T15:22:22.498Z,2.38
2022-11-25T15:24:56.053Z,2.47
2022-11-25T15:27:26.445Z,2.40
2022-11-25T15:29:57.844Z,2.47
2022-11-25T15:32:28.167Z,2.58
2022-11-25T15:34:59.438Z,2.60
2022-11-25T15:37:27.820Z,2.67
2022-11-25T15:40:30.678Z,2.47
2022-11-25T15:42:59.957Z,3.38
2022-11-25T15:45:34.749Z,4.45
2022-11-25T15:48:04.123Z,3.10
2022-11-25T15:50:34.311Z,3.17
2022-11-25T15:53:02.663Z,3.35
2022-11-25T15:55:34.294Z,3.13
2022-11-25T15:58:06.712Z,3.45
2022-11-25T16:00:36.155Z,3.05
2022-11-25T16:03:04.891Z,3.33
2022-11-25T16:05:36.028Z,3.72
2022-11-25T16:08:31.701Z,4.22
2022-11-25T16:11:01.332Z,3.00
2022-11-25T16:13:34.622Z,3.10
2022-11-25T16:16:13.503Z,4.65
2022-11-25T16:18:45.048Z,3.78
2022-11-25T16:21:16.507Z,3.15
2022-11-25T16:23:48.542Z,4.30
2022-11-25T16:26:19.076Z,4.55
2022-11-25T16:28:55.409Z,5.85
2022-11-25T16:31:25.182Z,5.05
2022-11-25T16:33:55.451Z,5.05
2022-11-25T16:36:23.422Z,5.57
2022-11-25T16:38:54.319Z,3.85
2022-11-25T16:41:24.866Z,3.05
2022-11-25T16:43:55.059Z,3.17
2022-11-25T16:46:28.451Z,4.68
2022-11-25T16:48:56.510Z,3.92
2022-11-25T16:51:25.320Z,4.28
2022-11-25T16:53:53.181Z,4.97
2022-11-25T16:56:25.517Z,3.63
2022-11-25T16:58:54.708Z,4.13
2022-11-25T17:01:25.524Z,4.20
2022-11-25T17:03:55.023Z,3.90
2022-11-25T17:06:25.767Z,3.95
2022-11-25T17:08:53.957Z,4.28
2022-11-25T17:11:26.437Z,3.80
2022-11-25T17:13:55.250Z,5.18
2022-11-25T17:16:26.152Z,4.57
2022-11-25T17:18:57.556Z,4.20
2022-11-25T17:21:27.940Z,5.80
2022-11-25T17:23:59.073Z,4.82
2022-11-25T17:26:32.627Z,4.35
2022-11-25T17:29:01.788Z,4.97
2022-11-25T17:31:33.472Z,5.15
2022-11-25T17:34:02.808Z,5.00
2022-11-25T17:36:30.707Z,4.63
2022-11-25T17:38:58.619Z,5.45
2022-11-25T17:41:27.408Z,5.53
2022-11-25T17:43:55.969Z,6.05
2022-11-25T17:46:28.509Z,4.35
2022-11-25T17:48:56.688Z,5.00
2022-11-25T17:51:25.918Z,5.50
2022-11-25T17:53:53.786Z,5.00
2022-11-25T17:56:26.038Z,4.53
2022-11-25T17:58:54.254Z,5.60
2022-11-25T18:01:22.267Z,5.65
2022-11-25T18:03:52.930Z,5.45
2022-11-25T18:06:20.938Z,5.55
2022-11-25T18:08:50.219Z,5.97
2022-11-25T18:11:22.809Z,4.82
2022-11-25T18:13:51.612Z,4.60
2022-11-25T18:16:20.817Z,5.20
2022-11-25T18:18:48.865Z,5.30
2022-11-25T18:21:16.833Z,4.50
2022-11-25T18:23:44.904Z,5.40
2022-11-25T18:26:14.505Z,5.40
2022-11-25T18:28:42.657Z,6.55
2022-11-25T18:31:13.127Z,4.90
2022-11-25T18:33:41.710Z,5.00
2022-11-25T18:36:13.715Z,5.28
2022-11-25T18:38:41.942Z,4.85
2022-11-25T18:41:21.526Z,5.22
2022-11-25T18:43:49.505Z,4.75
2022-11-25T18:46:17.665Z,5.65
2022-11-25T18:48:45.788Z,4.45
2022-11-25T18:51:14.334Z,5.80
2022-11-25T18:53:42.288Z,4.47
2022-11-25T18:56:17.779Z,5.25
2022-11-25T18:58:51.913Z,5.20
2022-11-25T19:01:23.581Z,5.63
2022-11-25T19:03:53.774Z,5.10
2022-11-25T19:06:21.741Z,6.47
2022-11-25T19:08:52.318Z,5.85
2022-11-25T19:11:24.121Z,4.85
2022-11-25T19:13:53.556Z,5.55
2022-11-25T19:16:23.625Z,5.30
2022-11-25T19:18:51.853Z,5.68
2022-11-25T19:21:21.831Z,5.72
2022-11-25T19:23:49.835Z,5.90
2022-11-25T19:26:20.807Z,4.72
2022-11-25T19:28:51.655Z,5.30
2022-11-25T19:31:22.005Z,5.88
2022-11-25T19:33:52.100Z,5.85
2022-11-25T19:36:24.632Z,5.60
2022-11-25T19:38:53.262Z,5.80
2022-11-25T19:41:21.675Z,5.75
2022-11-25T19:43:49.604Z,5.25
2022-11-25T19:46:30.145Z,5.28
2022-11-25T19:49:06.613Z,4.43
2022-11-25T19:51:35.705Z,5.78
2022-11-25T19:54:03.733Z,5.07
2022-11-25T19:56:31.613Z,5.60
2022-11-25T19:58:59.608Z,5.32
2022-11-25T20:01:33.899Z,5.07
2022-11-25T20:04:03.399Z,5.70
2022-11-25T20:06:32.836Z,8.30
2022-11-25T20:09:06.647Z,6.65
2022-11-25T20:11:36.724Z,5.68
2022-11-25T20:14:05.182Z,5.90
2022-11-25T20:16:37.579Z,5.32
2022-11-25T20:19:06.869Z,4.70
2022-11-25T20:21:37.737Z,4.53
2022-11-25T20:24:11.669Z,5.30
2022-11-25T20:26:45.757Z,5.18
2022-11-25T20:29:17.104Z,5.50
2022-11-25T20:31:46.368Z,6.30
2022-11-25T20:34:14.868Z,7.13
2022-11-25T20:36:45.309Z,5.88
2022-11-25T20:39:18.071Z,5.65
2022-11-25T20:41:49.448Z,4.85
2022-11-25T20:44:18.088Z,5.03
2022-11-25T20:46:48.142Z,7.22
2022-11-25T20:49:22.804Z,5.38
2022-11-25T20:51:51.134Z,5.72
2022-11-25T20:54:19.190Z,5.63
2022-11-25T20:56:47.156Z,5.72
2022-11-25T20:59:21.718Z,6.43
2022-11-25T21:01:52.622Z,5.78
2022-11-25T21:04:23.182Z,5.53
2022-11-25T21:06:51.236Z,5.75
2022-11-25T21:09:23.167Z,6.15
2022-11-25T21:11:51.224Z,5.97
2022-11-25T21:14:20.677Z,5.03
2022-11-25T21:16:49.004Z,5.50
2022-11-25T21:19:18.827Z,4.38
2022-11-25T21:21:48.488Z,4.72
2022-11-25T21:24:27.701Z,5.05
2022-11-25T21:26:56.337Z,5.57
2022-11-25T21:29:24.785Z,5.22
2022-11-25T21:31:57.769Z,5.38
2022-11-25T21:34:28.132Z,7.28
2022-11-25T21:36:57.768Z,5.68
2022-11-25T21:39:31.781Z,4.60
2022-11-25T21:42:03.546Z,5.35
2022-11-25T21:44:36.430Z,5.25
2022-11-25T21:47:17.684Z,4.55
2022-11-25T21:49:58.960Z,4.85
2022-11-25T21:52:33.700Z,5.63
2022-11-25T21:55:04.232Z,5.18
2022-11-25T21:57:34.143Z,5.93
2022-11-25T22:00:09.587Z,5.30
2022-11-25T22:03:04.154Z,5.75
2022-11-25T22:05:34.808Z,4.65
2022-11-25T22:08:03.328Z,4.45
2022-11-25T22:10:31.640Z,4.68
2022-11-25T22:12:59.671Z,5.05
2022-11-25T22:15:27.755Z,4.38
2022-11-25T22:17:58.273Z,4.40
2022-11-25T22:20:30.169Z,4.65
2022-11-25T22:22:59.429Z,4.68
2022-11-25T22:25:30.304Z,5.38
2022-11-25T22:27:58.377Z,4.05
2022-11-25T22:30:26.352Z,4.43
2022-11-25T22:33:01.011Z,4.22
2022-11-25T22:35:29.273Z,5.47
2022-11-25T22:37:57.210Z,4.25
2022-11-25T22:40:26.651Z,4.00
2022-11-25T22:42:56.298Z,4.78
2022-11-25T22:45:30.506Z,4.80
2022-11-25T22:47:59.200Z,4.40
2022-11-25T22:50:29.294Z,4.32
2022-11-25T22:52:57.787Z,3.78
2022-11-25T22:55:29.116Z,3.80
2022-11-25T22:57:59.462Z,3.42
2022-11-25T23:00:30.142Z,3.83
2022-11-25T23:02:59.795Z,4.15
2022-11-25T23:05:33.499Z,3.53
2022-11-25T23:08:02.131Z,4.18
2022-11-25T23:10:32.488Z,4.55
2022-11-25T23:13:00.364Z,4.03
2022-11-25T23:15:28.484Z,4.03
2022-11-25T23:17:57.984Z,4.80
2022-11-25T23:20:29.721Z,3.60
2022-11-25T23:22:58.091Z,4.55
2022-11-25T23:25:26.002Z,4.97
2022-11-25T23:27:55.369Z,4.03
2022-11-25T23:30:24.559Z,3.60
2022-11-25T23:32:54.473Z,2.83
2022-11-25T23:35:28.517Z,2.85
2022-11-25T23:37:57.803Z,2.88
2022-11-25T23:40:27.541Z,2.33
2022-11-25T23:42:57.524Z,2.17
2022-11-25T23:45:27.901Z,2.08
2022-11-25T23:47:57.794Z,2.10
2022-11-25T23:50:32.185Z,2.00
2022-11-25T23:53:03.624Z,2.10
2022-11-25T23:55:35.209Z,3.85
2022-11-25T23:58:07.220Z,3.45
